PWSweather.com
Personal Weather Stations
Station Observations
IBAVARIA50
Munich, PlieningDE 85652

MunichPlieningDE 85652

Lat: 48.19916153, Lon: 11.79794312

Elevation: 504

Station Type: Davis Vantage Pro2

http://wetterstation-pliening.info

Latest ConditionsUpdated 2:50:16 PM GMT+01:01 Thursday, Nov 14, 2019
Currently Today's Max Today's Min Today's Average
Temperature 42.5°F5.8°C 43.4°F6.3°C 30.2°F-1.0°C 34.7°F1.5°C
Dew Point 35.1°F1.7°C 37.3°F2.9°C 28.6°F-1.9°C 31.8°F-0.1°C
Winds 3.0 mph ENE4.8 kmh ENE 9.0 mph -14.5 kmh - - 2.2 mph 3.5 kmh
Wind Gusts 7.0 mph11.3 kmh 12.0 mph19.3 kmh - -
Humidity 75% 95% 74% 90%
Pressure 29.63 in1003.4 mb 29.74 in1007.1 mb 29.63 in1003.4 mb -
Precipitation - 0.01 in0.3 mm - -
Hour Temp Dew Point Humidity Winds Wind Gusts Pressure Precip Precip Rate Daily Precip Total
02:50 PM 42.5°F5.8°C 35.1°F1.7°C 75% 3.0 mph ENE4.8 kmh ENE 7.0 mph11.3 kmh 29.63 in1003.4 mb 0.00 in0.0 mm 0.00 in0.0 mm 0.01 in0.3 mm
02:45 PM 42.9°F6.1°C 35.1°F1.7°C 74% 4.0 mph SE6.4 kmh SE 9.0 mph14.5 kmh 29.63 in1003.4 mb 0.00 in0.0 mm 0.00 in0.0 mm 0.01 in0.3 mm
02:40 PM 43.1°F6.2°C 36.0°F2.2°C 76% 2.0 mph E3.2 kmh E 4.0 mph6.4 kmh 29.63 in1003.4 mb 0.00 in0.0 mm 0.00 in0.0 mm 0.01 in0.3 mm
02:35 PM 43.3°F6.3°C 35.9°F2.2°C 75% 2.0 mph ENE3.2 kmh ENE 5.0 mph8.0 kmh 29.63 in1003.4 mb 0.00 in0.0 mm 0.00 in0.0 mm 0.01 in0.3 mm
02:30 PM 43.4°F6.3°C 36.3°F2.4°C 76% Calm Calm 4.0 mph6.4 kmh 29.63 in1003.4 mb 0.00 in0.0 mm 0.00 in0.0 mm 0.01 in0.3 mm
02:25 PM 43.4°F6.3°C 36.3°F2.4°C 76% Calm Calm 5.0 mph8.0 kmh 29.63 in1003.4 mb 0.00 in0.0 mm 0.00 in0.0 mm 0.01 in0.3 mm
02:20 PM 43.3°F6.3°C 35.9°F2.2°C 75% 3.0 mph E4.8 kmh E 7.0 mph11.3 kmh 29.63 in1003.4 mb 0.00 in0.0 mm 0.00 in0.0 mm 0.01 in0.3 mm
02:15 PM 43.3°F6.3°C 36.5°F2.5°C 77% 1.0 mph SE1.6 kmh SE 6.0 mph9.7 kmh 29.64 in1003.7 mb 0.00 in0.0 mm 0.00 in0.0 mm 0.01 in0.3 mm
02:10 PM 43.1°F6.2°C 36.3°F2.4°C 77% 4.0 mph SE6.4 kmh SE 6.0 mph9.7 kmh 29.64 in1003.7 mb 0.00 in0.0 mm 0.00 in0.0 mm 0.01 in0.3 mm
02:05 PM 43.2°F6.2°C 36.4°F2.4°C 77% 3.0 mph ENE4.8 kmh ENE 7.0 mph11.3 kmh 29.63 in1003.4 mb 0.00 in0.0 mm 0.00 in0.0 mm 0.01 in0.3 mm
02:00 PM 42.9°F6.1°C 36.5°F2.5°C 78% 4.0 mph E6.4 kmh E 6.0 mph9.7 kmh 29.64 in1003.7 mb 0.00 in0.0 mm 0.00 in0.0 mm 0.01 in0.3 mm
01:55 PM 43.0°F6.1°C 36.2°F2.3°C 77% 2.0 mph E3.2 kmh E 6.0 mph9.7 kmh 29.64 in1003.7 mb 0.00 in0.0 mm 0.00 in0.0 mm 0.01 in0.3 mm
01:50 PM 43.0°F6.1°C 36.6°F2.6°C 78% 3.0 mph E4.8 kmh E 6.0 mph9.7 kmh 29.65 in1004.1 mb 0.00 in0.0 mm 0.00 in0.0 mm 0.01 in0.3 mm
01:45 PM 43.0°F6.1°C 36.9°F2.7°C 79% 3.0 mph E4.8 kmh E 5.0 mph8.0 kmh 29.65 in1004.1 mb 0.00 in0.0 mm 0.00 in0.0 mm 0.01 in0.3 mm
01:40 PM 42.8°F6.0°C 37.0°F2.8°C 80% 2.0 mph E3.2 kmh E 7.0 mph11.3 kmh 29.65 in1004.1 mb 0.00 in0.0 mm 0.00 in0.0 mm 0.01 in0.3 mm
01:35 PM 42.8°F6.0°C 36.7°F2.6°C 79% 1.0 mph E1.6 kmh E 7.0 mph11.3 kmh 29.64 in1003.7 mb 0.00 in0.0 mm 0.00 in0.0 mm 0.01 in0.3 mm
01:30 PM 43.1°F6.2°C 37.3°F2.9°C 80% 3.0 mph ENE4.8 kmh ENE 7.0 mph11.3 kmh 29.64 in1003.7 mb 0.00 in0.0 mm 0.00 in0.0 mm 0.01 in0.3 mm
01:25 PM 43.0°F6.1°C 36.9°F2.7°C 79% 3.0 mph E4.8 kmh E 6.0 mph9.7 kmh 29.65 in1004.1 mb 0.00 in0.0 mm 0.00 in0.0 mm 0.01 in0.3 mm
01:20 PM 42.3°F5.7°C 36.5°F2.5°C 80% 2.0 mph ESE3.2 kmh ESE 5.0 mph8.0 kmh 29.65 in1004.1 mb 0.00 in0.0 mm 0.00 in0.0 mm 0.01 in0.3 mm
01:15 PM 41.8°F5.4°C 35.4°F1.9°C 78% 5.0 mph E8.0 kmh E 9.0 mph14.5 kmh 29.65 in1004.1 mb 0.00 in0.0 mm 0.00 in0.0 mm 0.01 in0.3 mm
01:10 PM 41.5°F5.3°C 35.1°F1.7°C 78% 4.0 mph ESE6.4 kmh ESE 9.0 mph14.5 kmh 29.65 in1004.1 mb 0.00 in0.0 mm 0.00 in0.0 mm 0.01 in0.3 mm
01:05 PM 41.8°F5.4°C 35.4°F1.9°C 78% 6.0 mph E9.7 kmh E 9.0 mph14.5 kmh 29.66 in1004.4 mb 0.00 in0.0 mm 0.00 in0.0 mm 0.01 in0.3 mm
01:00 PM 42.2°F5.7°C 35.8°F2.1°C 78% 2.0 mph ESE3.2 kmh ESE 7.0 mph11.3 kmh 29.66 in1004.4 mb 0.00 in0.0 mm 0.00 in0.0 mm 0.01 in0.3 mm
12:55 PM 42.0°F5.6°C 35.9°F2.2°C 79% 1.0 mph SE1.6 kmh SE 6.0 mph9.7 kmh 29.66 in1004.4 mb 0.00 in0.0 mm 0.00 in0.0 mm 0.01 in0.3 mm
12:50 PM 41.9°F5.5°C 35.8°F2.1°C 79% 2.0 mph ESE3.2 kmh ESE 6.0 mph9.7 kmh 29.66 in1004.4 mb 0.00 in0.0 mm 0.00 in0.0 mm 0.01 in0.3 mm
12:45 PM 41.7°F5.4°C 35.9°F2.2°C 80% 6.0 mph ESE9.7 kmh ESE 6.0 mph9.7 kmh 29.67 in1004.7 mb 0.00 in0.0 mm 0.00 in0.0 mm 0.01 in0.3 mm
12:40 PM 41.4°F5.2°C 36.0°F2.2°C 81% 3.0 mph ESE4.8 kmh ESE 8.0 mph12.9 kmh 29.66 in1004.4 mb 0.00 in0.0 mm 0.00 in0.0 mm 0.01 in0.3 mm
12:35 PM 41.3°F5.2°C 36.2°F2.3°C 82% 1.0 mph ESE1.6 kmh ESE 7.0 mph11.3 kmh 29.66 in1004.4 mb 0.00 in0.0 mm 0.00 in0.0 mm 0.01 in0.3 mm
12:30 PM 41.1°F5.1°C 35.7°F2.1°C 81% 4.0 mph E6.4 kmh E 9.0 mph14.5 kmh 29.66 in1004.4 mb 0.00 in0.0 mm 0.00 in0.0 mm 0.01 in0.3 mm
12:25 PM 41.1°F5.1°C 36.0°F2.2°C 82% 4.0 mph E6.4 kmh E 9.0 mph14.5 kmh 29.67 in1004.7 mb 0.00 in0.0 mm 0.00 in0.0 mm 0.01 in0.3 mm
12:20 PM 40.9°F4.9°C 35.8°F2.1°C 82% 6.0 mph E9.7 kmh E 8.0 mph12.9 kmh 29.67 in1004.7 mb 0.00 in0.0 mm 0.00 in0.0 mm 0.01 in0.3 mm
12:15 PM 40.9°F4.9°C 35.8°F2.1°C 82% 6.0 mph E9.7 kmh E 9.0 mph14.5 kmh 29.67 in1004.7 mb 0.00 in0.0 mm 0.00 in0.0 mm 0.01 in0.3 mm
12:10 PM 40.5°F4.7°C 35.1°F1.7°C 81% Calm Calm 7.0 mph11.3 kmh 29.67 in1004.7 mb 0.00 in0.0 mm 0.00 in0.0 mm 0.01 in0.3 mm
12:05 PM 40.5°F4.7°C 35.4°F1.9°C 82% 3.0 mph E4.8 kmh E 7.0 mph11.3 kmh 29.67 in1004.7 mb 0.00 in0.0 mm 0.00 in0.0 mm 0.01 in0.3 mm
12:00 PM 40.4°F4.7°C 35.6°F2.0°C 83% 2.0 mph SE3.2 kmh SE 6.0 mph9.7 kmh 29.68 in1005.1 mb 0.00 in0.0 mm 0.00 in0.0 mm 0.01 in0.3 mm
11:55 AM 40.3°F4.6°C 35.2°F1.8°C 82% 2.0 mph E3.2 kmh E 8.0 mph12.9 kmh 29.68 in1005.1 mb 0.00 in0.0 mm 0.00 in0.0 mm 0.01 in0.3 mm
11:50 AM 40.2°F4.6°C 35.4°F1.9°C 83% 2.0 mph SE3.2 kmh SE 6.0 mph9.7 kmh 29.68 in1005.1 mb 0.01 in0.3 mm 0.00 in0.0 mm 0.01 in0.3 mm
11:45 AM 39.7°F4.3°C 34.9°F1.6°C 83% 2.0 mph S3.2 kmh S 5.0 mph8.0 kmh 29.68 in1005.1 mb 0.01 in0.3 mm 0.00 in0.0 mm 0.01 in0.3 mm
11:40 AM 39.3°F4.1°C 34.8°F1.6°C 84% 4.0 mph ESE6.4 kmh ESE 6.0 mph9.7 kmh 29.68 in1005.1 mb 0.01 in0.3 mm 0.00 in0.0 mm 0.01 in0.3 mm
11:35 AM 39.1°F3.9°C 34.3°F1.3°C 83% 2.0 mph ESE3.2 kmh ESE 7.0 mph11.3 kmh 29.67 in1004.7 mb 0.01 in0.3 mm 0.00 in0.0 mm 0.01 in0.3 mm
11:30 AM 39.0°F3.9°C 34.5°F1.4°C 84% 3.0 mph E4.8 kmh E 7.0 mph11.3 kmh 29.67 in1004.7 mb 0.01 in0.3 mm 0.00 in0.0 mm 0.01 in0.3 mm
11:25 AM 38.8°F3.8°C 34.3°F1.3°C 84% 3.0 mph SE4.8 kmh SE 6.0 mph9.7 kmh 29.68 in1005.1 mb 0.01 in0.3 mm 0.00 in0.0 mm 0.01 in0.3 mm
11:20 AM 38.6°F3.7°C 34.4°F1.3°C 85% 1.0 mph S1.6 kmh S 6.0 mph9.7 kmh 29.68 in1005.1 mb 0.01 in0.3 mm 0.00 in0.0 mm 0.01 in0.3 mm
11:15 AM 38.5°F3.6°C 34.3°F1.3°C 85% 4.0 mph E6.4 kmh E 5.0 mph8.0 kmh 29.68 in1005.1 mb 0.01 in0.3 mm 0.00 in0.0 mm 0.01 in0.3 mm
11:10 AM 38.3°F3.5°C 34.1°F1.2°C 85% 2.0 mph ESE3.2 kmh ESE 9.0 mph14.5 kmh 29.68 in1005.1 mb 0.01 in0.3 mm 0.00 in0.0 mm 0.01 in0.3 mm
11:05 AM 38.2°F3.4°C 34.0°F1.1°C 85% 7.0 mph E11.3 kmh E 9.0 mph14.5 kmh 29.68 in1005.1 mb 0.01 in0.3 mm 0.00 in0.0 mm 0.01 in0.3 mm
11:00 AM 37.9°F3.3°C 33.8°F1.0°C 85% 1.0 mph E1.6 kmh E 7.0 mph11.3 kmh 29.68 in1005.1 mb 0.01 in0.3 mm 0.00 in0.0 mm 0.01 in0.3 mm
10:55 AM 37.8°F3.2°C 33.9°F1.1°C 86% 2.0 mph E3.2 kmh E 8.0 mph12.9 kmh 29.69 in1005.4 mb 0.01 in0.3 mm 0.12 in3.0 mm 0.01 in0.3 mm
10:50 AM 37.5°F3.1°C 33.9°F1.1°C 87% 9.0 mph E14.5 kmh E 9.0 mph14.5 kmh 29.69 in1005.4 mb 0.00 in0.0 mm 0.00 in0.0 mm 0.00 in0.0 mm
10:40 AM 36.9°F2.7°C 33.3°F0.7°C 87% 6.0 mph E9.7 kmh E 9.0 mph14.5 kmh 29.69 in1005.4 mb 0.00 in0.0 mm 0.00 in0.0 mm 0.00 in0.0 mm
10:35 AM 36.7°F2.6°C 33.2°F0.7°C 87% 2.0 mph E3.2 kmh E 7.0 mph11.3 kmh 29.69 in1005.4 mb 0.00 in0.0 mm 0.00 in0.0 mm 0.00 in0.0 mm
10:30 AM 36.5°F2.5°C 33.0°F0.6°C 87% 4.0 mph E6.4 kmh E 7.0 mph11.3 kmh 29.70 in1005.8 mb 0.00 in0.0 mm 0.00 in0.0 mm 0.00 in0.0 mm
10:25 AM 36.4°F2.4°C 33.1°F0.6°C 88% 4.0 mph E6.4 kmh E 7.0 mph11.3 kmh 29.70 in1005.8 mb 0.00 in0.0 mm 0.00 in0.0 mm 0.00 in0.0 mm
10:20 AM 36.1°F2.3°C 33.1°F0.6°C 89% Calm Calm 5.0 mph8.0 kmh 29.69 in1005.4 mb 0.00 in0.0 mm 0.00 in0.0 mm 0.00 in0.0 mm
10:15 AM 35.8°F2.1°C 32.8°F0.4°C 89% 3.0 mph E4.8 kmh E 7.0 mph11.3 kmh 29.69 in1005.4 mb 0.00 in0.0 mm 0.00 in0.0 mm 0.00 in0.0 mm
10:10 AM 35.5°F1.9°C 32.8°F0.4°C 90% 3.0 mph NE4.8 kmh NE 4.0 mph6.4 kmh 29.69 in1005.4 mb 0.00 in0.0 mm 0.00 in0.0 mm 0.00 in0.0 mm
10:05 AM 35.3°F1.8°C 32.6°F0.3°C 90% 4.0 mph NE6.4 kmh NE 5.0 mph8.0 kmh 29.70 in1005.8 mb 0.00 in0.0 mm 0.00 in0.0 mm 0.00 in0.0 mm
10:00 AM 35.1°F1.7°C 32.4°F0.2°C 90% 1.0 mph ESE1.6 kmh ESE 5.0 mph8.0 kmh 29.69 in1005.4 mb 0.00 in0.0 mm 0.00 in0.0 mm 0.00 in0.0 mm
09:55 AM 34.9°F1.6°C 32.5°F0.3°C 91% Calm Calm 7.0 mph11.3 kmh 29.70 in1005.8 mb 0.00 in0.0 mm 0.00 in0.0 mm 0.00 in0.0 mm
09:50 AM 34.6°F1.4°C 32.2°F0.1°C 91% 2.0 mph ENE3.2 kmh ENE 7.0 mph11.3 kmh 29.69 in1005.4 mb 0.00 in0.0 mm 0.00 in0.0 mm 0.00 in0.0 mm
09:45 AM 34.3°F1.3°C 31.9°F-0.1°C 91% 3.0 mph E4.8 kmh E 4.0 mph6.4 kmh 29.69 in1005.4 mb 0.00 in0.0 mm 0.00 in0.0 mm 0.00 in0.0 mm
09:40 AM 34.1°F1.2°C 32.0°F0.0°C 92% 4.0 mph NE6.4 kmh NE 5.0 mph8.0 kmh 29.69 in1005.4 mb 0.00 in0.0 mm 0.00 in0.0 mm 0.00 in0.0 mm
09:35 AM 33.8°F1.0°C 31.7°F-0.2°C 92% Calm Calm 5.0 mph8.0 kmh 29.69 in1005.4 mb 0.00 in0.0 mm 0.00 in0.0 mm 0.00 in0.0 mm
09:30 AM 33.6°F0.9°C 31.5°F-0.3°C 92% 3.0 mph ENE4.8 kmh ENE 4.0 mph6.4 kmh 29.69 in1005.4 mb 0.00 in0.0 mm 0.00 in0.0 mm 0.00 in0.0 mm
09:25 AM 33.4°F0.8°C 31.3°F-0.4°C 92% 2.0 mph ENE3.2 kmh ENE 4.0 mph6.4 kmh 29.69 in1005.4 mb 0.00 in0.0 mm 0.00 in0.0 mm 0.00 in0.0 mm
09:20 AM 33.2°F0.7°C 31.3°F-0.4°C 93% 3.0 mph ESE4.8 kmh ESE 5.0 mph8.0 kmh 29.69 in1005.4 mb 0.00 in0.0 mm 0.00 in0.0 mm 0.00 in0.0 mm
09:15 AM 32.8°F0.4°C 31.0°F-0.6°C 93% 2.0 mph E3.2 kmh E 4.0 mph6.4 kmh 29.69 in1005.4 mb 0.00 in0.0 mm 0.00 in0.0 mm 0.00 in0.0 mm
09:10 AM 32.6°F0.3°C 30.8°F-0.7°C 93% Calm Calm 4.0 mph6.4 kmh 29.69 in1005.4 mb 0.00 in0.0 mm 0.00 in0.0 mm 0.00 in0.0 mm
09:05 AM 32.3°F0.2°C 30.7°F-0.7°C 94% Calm Calm 4.0 mph6.4 kmh 29.69 in1005.4 mb 0.00 in0.0 mm 0.00 in0.0 mm 0.00 in0.0 mm
09:00 AM 31.9°F-0.1°C 30.3°F-0.9°C 94% Calm Calm 3.0 mph4.8 kmh 29.69 in1005.4 mb 0.00 in0.0 mm 0.00 in0.0 mm 0.00 in0.0 mm
08:55 AM 31.7°F-0.2°C 30.1°F-1.1°C 94% Calm Calm 2.0 mph3.2 kmh 29.69 in1005.4 mb 0.00 in0.0 mm 0.00 in0.0 mm 0.00 in0.0 mm
08:50 AM 31.4°F-0.3°C 29.8°F-1.2°C 94% Calm Calm 3.0 mph4.8 kmh 29.69 in1005.4 mb 0.00 in0.0 mm 0.00 in0.0 mm 0.00 in0.0 mm
08:45 AM 31.2°F-0.4°C 29.6°F-1.3°C 94% Calm Calm 2.0 mph3.2 kmh 29.68 in1005.1 mb 0.00 in0.0 mm 0.00 in0.0 mm 0.00 in0.0 mm
08:40 AM 31.0°F-0.6°C 29.4°F-1.4°C 94% Calm Calm 2.0 mph3.2 kmh 29.68 in1005.1 mb 0.00 in0.0 mm 0.00 in0.0 mm 0.00 in0.0 mm
08:35 AM 31.0°F-0.6°C 29.4°F-1.4°C 94% Calm Calm 3.0 mph4.8 kmh 29.68 in1005.1 mb 0.00 in0.0 mm 0.00 in0.0 mm 0.00 in0.0 mm
08:30 AM 30.9°F-0.6°C 29.3°F-1.5°C 94% 1.0 mph E1.6 kmh E 3.0 mph4.8 kmh 29.68 in1005.1 mb 0.00 in0.0 mm 0.00 in0.0 mm 0.00 in0.0 mm
08:25 AM 30.8°F-0.7°C 29.2°F-1.6°C 94% 1.0 mph ESE1.6 kmh ESE 2.0 mph3.2 kmh 29.68 in1005.1 mb 0.00 in0.0 mm 0.00 in0.0 mm 0.00 in0.0 mm
08:20 AM 30.8°F-0.7°C 29.2°F-1.6°C 94% 2.0 mph ESE3.2 kmh ESE 2.0 mph3.2 kmh 29.68 in1005.1 mb 0.00 in0.0 mm 0.00 in0.0 mm 0.00 in0.0 mm
08:15 AM 30.8°F-0.7°C 29.2°F-1.6°C 94% Calm Calm 2.0 mph3.2 kmh 29.68 in1005.1 mb 0.00 in0.0 mm 0.00 in0.0 mm 0.00 in0.0 mm
08:10 AM 30.7°F-0.7°C 29.1°F-1.6°C 94% Calm Calm 2.0 mph3.2 kmh 29.68 in1005.1 mb 0.00 in0.0 mm 0.00 in0.0 mm 0.00 in0.0 mm
08:05 AM 30.6°F-0.8°C 29.0°F-1.7°C 94% Calm Calm 2.0 mph3.2 kmh 29.68 in1005.1 mb 0.00 in0.0 mm 0.00 in0.0 mm 0.00 in0.0 mm
08:00 AM 30.5°F-0.8°C 28.9°F-1.7°C 94% 2.0 mph ESE3.2 kmh ESE 3.0 mph4.8 kmh 29.68 in1005.1 mb 0.00 in0.0 mm 0.00 in0.0 mm 0.00 in0.0 mm
07:55 AM 30.5°F-0.8°C 28.9°F-1.7°C 94% Calm Calm 2.0 mph3.2 kmh 29.68 in1005.1 mb 0.00 in0.0 mm 0.00 in0.0 mm 0.00 in0.0 mm
07:50 AM 30.5°F-0.8°C 28.9°F-1.7°C 94% Calm Calm 3.0 mph4.8 kmh 29.68 in1005.1 mb 0.00 in0.0 mm 0.00 in0.0 mm 0.00 in0.0 mm
07:45 AM 30.5°F-0.8°C 28.9°F-1.7°C 94% 2.0 mph E3.2 kmh E 5.0 mph8.0 kmh 29.68 in1005.1 mb 0.00 in0.0 mm 0.00 in0.0 mm 0.00 in0.0 mm
07:40 AM 30.4°F-0.9°C 28.8°F-1.8°C 94% 2.0 mph ESE3.2 kmh ESE 5.0 mph8.0 kmh 29.68 in1005.1 mb 0.00 in0.0 mm 0.00 in0.0 mm 0.00 in0.0 mm
07:35 AM 30.3°F-0.9°C 28.7°F-1.8°C 94% 2.0 mph E3.2 kmh E 7.0 mph11.3 kmh 29.67 in1004.7 mb 0.00 in0.0 mm 0.00 in0.0 mm 0.00 in0.0 mm
07:30 AM 30.2°F-1.0°C 28.6°F-1.9°C 94% 1.0 mph E1.6 kmh E 5.0 mph8.0 kmh 29.67 in1004.7 mb 0.00 in0.0 mm 0.00 in0.0 mm 0.00 in0.0 mm
07:25 AM 30.2°F-1.0°C 28.6°F-1.9°C 94% 1.0 mph SE1.6 kmh SE 6.0 mph9.7 kmh 29.67 in1004.7 mb 0.00 in0.0 mm 0.00 in0.0 mm 0.00 in0.0 mm
07:20 AM 30.2°F-1.0°C 28.6°F-1.9°C 94% 2.0 mph E3.2 kmh E 4.0 mph6.4 kmh 29.67 in1004.7 mb 0.00 in0.0 mm 0.00 in0.0 mm 0.00 in0.0 mm
07:15 AM 30.4°F-0.9°C 28.8°F-1.8°C 94% Calm Calm 3.0 mph4.8 kmh 29.67 in1004.7 mb 0.00 in0.0 mm 0.00 in0.0 mm 0.00 in0.0 mm
07:10 AM 30.5°F-0.8°C 28.9°F-1.7°C 94% 1.0 mph ESE1.6 kmh ESE 3.0 mph4.8 kmh 29.67 in1004.7 mb 0.00 in0.0 mm 0.00 in0.0 mm 0.00 in0.0 mm
07:05 AM 30.6°F-0.8°C 28.8°F-1.8°C 93% 1.0 mph ESE1.6 kmh ESE 3.0 mph4.8 kmh 29.67 in1004.7 mb 0.00 in0.0 mm 0.00 in0.0 mm 0.00 in0.0 mm
07:00 AM 30.8°F-0.7°C 29.2°F-1.6°C 94% 2.0 mph ESE3.2 kmh ESE 5.0 mph8.0 kmh 29.67 in1004.7 mb 0.00 in0.0 mm 0.00 in0.0 mm 0.00 in0.0 mm
06:55 AM 30.8°F-0.7°C 29.2°F-1.6°C 94% 4.0 mph E6.4 kmh E 5.0 mph8.0 kmh 29.67 in1004.7 mb 0.00 in0.0 mm 0.00 in0.0 mm 0.00 in0.0 mm
06:50 AM 30.9°F-0.6°C 29.3°F-1.5°C 94% 1.0 mph E1.6 kmh E 6.0 mph9.7 kmh 29.66 in1004.4 mb 0.00 in0.0 mm 0.00 in0.0 mm 0.00 in0.0 mm
06:45 AM 30.9°F-0.6°C 29.3°F-1.5°C 94% 4.0 mph ESE6.4 kmh ESE 6.0 mph9.7 kmh 29.66 in1004.4 mb 0.00 in0.0 mm 0.00 in0.0 mm 0.00 in0.0 mm
06:40 AM 30.9°F-0.6°C 29.3°F-1.5°C 94% 4.0 mph E6.4 kmh E 6.0 mph9.7 kmh 29.66 in1004.4 mb 0.00 in0.0 mm 0.00 in0.0 mm 0.00 in0.0 mm
06:35 AM 31.0°F-0.6°C 29.4°F-1.4°C 94% 3.0 mph ESE4.8 kmh ESE 6.0 mph9.7 kmh 29.67 in1004.7 mb 0.00 in0.0 mm 0.00 in0.0 mm 0.00 in0.0 mm
06:30 AM 31.0°F-0.6°C 29.4°F-1.4°C 94% 3.0 mph ESE4.8 kmh ESE 5.0 mph8.0 kmh 29.67 in1004.7 mb 0.00 in0.0 mm 0.00 in0.0 mm 0.00 in0.0 mm
06:25 AM 31.1°F-0.5°C 29.5°F-1.4°C 94% 1.0 mph SE1.6 kmh SE 7.0 mph11.3 kmh 29.67 in1004.7 mb 0.00 in0.0 mm 0.00 in0.0 mm 0.00 in0.0 mm
06:20 AM 31.1°F-0.5°C 29.5°F-1.4°C 94% 2.0 mph SE3.2 kmh SE 6.0 mph9.7 kmh 29.67 in1004.7 mb 0.00 in0.0 mm 0.00 in0.0 mm 0.00 in0.0 mm
06:15 AM 31.1°F-0.5°C 29.5°F-1.4°C 94% 4.0 mph E6.4 kmh E 6.0 mph9.7 kmh 29.67 in1004.7 mb 0.00 in0.0 mm 0.00 in0.0 mm 0.00 in0.0 mm
06:10 AM 31.2°F-0.4°C 29.6°F-1.3°C 94% 4.0 mph E6.4 kmh E 7.0 mph11.3 kmh 29.67 in1004.7 mb 0.00 in0.0 mm 0.00 in0.0 mm 0.00 in0.0 mm
06:05 AM 31.2°F-0.4°C 29.6°F-1.3°C 94% 3.0 mph ESE4.8 kmh ESE 5.0 mph8.0 kmh 29.67 in1004.7 mb 0.00 in0.0 mm 0.00 in0.0 mm 0.00 in0.0 mm
06:00 AM 31.3°F-0.4°C 29.7°F-1.3°C 94% 5.0 mph E8.0 kmh E 5.0 mph8.0 kmh 29.67 in1004.7 mb 0.00 in0.0 mm 0.00 in0.0 mm 0.00 in0.0 mm
05:55 AM 31.3°F-0.4°C 29.7°F-1.3°C 94% 1.0 mph E1.6 kmh E 5.0 mph8.0 kmh 29.67 in1004.7 mb 0.00 in0.0 mm 0.00 in0.0 mm 0.00 in0.0 mm
05:50 AM 31.2°F-0.4°C 29.6°F-1.3°C 94% 1.0 mph E1.6 kmh E 5.0 mph8.0 kmh 29.67 in1004.7 mb 0.00 in0.0 mm 0.00 in0.0 mm 0.00 in0.0 mm
05:45 AM 31.2°F-0.4°C 29.6°F-1.3°C 94% 2.0 mph E3.2 kmh E 5.0 mph8.0 kmh 29.67 in1004.7 mb 0.00 in0.0 mm 0.00 in0.0 mm 0.00 in0.0 mm
05:40 AM 31.3°F-0.4°C 29.7°F-1.3°C 94% 3.0 mph ESE4.8 kmh ESE 4.0 mph6.4 kmh 29.67 in1004.7 mb 0.00 in0.0 mm 0.00 in0.0 mm 0.00 in0.0 mm
05:35 AM 31.4°F-0.3°C 29.8°F-1.2°C 94% Calm Calm 4.0 mph6.4 kmh 29.67 in1004.7 mb 0.00 in0.0 mm 0.00 in0.0 mm 0.00 in0.0 mm
05:30 AM 31.5°F-0.3°C 29.9°F-1.2°C 94% Calm Calm 5.0 mph8.0 kmh 29.67 in1004.7 mb 0.00 in0.0 mm 0.00 in0.0 mm 0.00 in0.0 mm
05:25 AM 31.5°F-0.3°C 29.9°F-1.2°C 94% 1.0 mph ESE1.6 kmh ESE 5.0 mph8.0 kmh 29.67 in1004.7 mb 0.00 in0.0 mm 0.00 in0.0 mm 0.00 in0.0 mm
05:20 AM 31.5°F-0.3°C 29.9°F-1.2°C 94% 2.0 mph ESE3.2 kmh ESE 6.0 mph9.7 kmh 29.67 in1004.7 mb 0.00 in0.0 mm 0.00 in0.0 mm 0.00 in0.0 mm
05:15 AM 31.6°F-0.2°C 30.0°F-1.1°C 94% 3.0 mph E4.8 kmh E 7.0 mph11.3 kmh 29.67 in1004.7 mb 0.00 in0.0 mm 0.00 in0.0 mm 0.00 in0.0 mm
05:10 AM 31.5°F-0.3°C 29.9°F-1.2°C 94% 3.0 mph ESE4.8 kmh ESE 7.0 mph11.3 kmh 29.67 in1004.7 mb 0.00 in0.0 mm 0.00 in0.0 mm 0.00 in0.0 mm
05:05 AM 31.4°F-0.3°C 29.8°F-1.2°C 94% 3.0 mph SE4.8 kmh SE 5.0 mph8.0 kmh 29.67 in1004.7 mb 0.00 in0.0 mm 0.00 in0.0 mm 0.00 in0.0 mm
05:00 AM 31.4°F-0.3°C 29.8°F-1.2°C 94% 1.0 mph E1.6 kmh E 5.0 mph8.0 kmh 29.67 in1004.7 mb 0.00 in0.0 mm 0.00 in0.0 mm 0.00 in0.0 mm
04:55 AM 31.4°F-0.3°C 29.8°F-1.2°C 94% 4.0 mph SE6.4 kmh SE 4.0 mph6.4 kmh 29.67 in1004.7 mb 0.00 in0.0 mm 0.00 in0.0 mm 0.00 in0.0 mm
04:50 AM 31.5°F-0.3°C 29.9°F-1.2°C 94% 2.0 mph ESE3.2 kmh ESE 5.0 mph8.0 kmh 29.67 in1004.7 mb 0.00 in0.0 mm 0.00 in0.0 mm 0.00 in0.0 mm
04:45 AM 31.5°F-0.3°C 29.9°F-1.2°C 94% 1.0 mph SE1.6 kmh SE 5.0 mph8.0 kmh 29.67 in1004.7 mb 0.00 in0.0 mm 0.00 in0.0 mm 0.00 in0.0 mm
04:40 AM 31.6°F-0.2°C 30.0°F-1.1°C 94% 1.0 mph ESE1.6 kmh ESE 7.0 mph11.3 kmh 29.68 in1005.1 mb 0.00 in0.0 mm 0.00 in0.0 mm 0.00 in0.0 mm
04:35 AM 31.6°F-0.2°C 29.8°F-1.2°C 93% Calm Calm 5.0 mph8.0 kmh 29.68 in1005.1 mb 0.00 in0.0 mm 0.00 in0.0 mm 0.00 in0.0 mm
04:30 AM 31.7°F-0.2°C 29.9°F-1.2°C 93% 3.0 mph ESE4.8 kmh ESE 5.0 mph8.0 kmh 29.67 in1004.7 mb 0.00 in0.0 mm 0.00 in0.0 mm 0.00 in0.0 mm
04:25 AM 31.8°F-0.1°C 30.0°F-1.1°C 93% 1.0 mph SE1.6 kmh SE 4.0 mph6.4 kmh 29.67 in1004.7 mb 0.00 in0.0 mm 0.00 in0.0 mm 0.00 in0.0 mm
04:20 AM 31.8°F-0.1°C 30.0°F-1.1°C 93% 1.0 mph ESE1.6 kmh ESE 6.0 mph9.7 kmh 29.67 in1004.7 mb 0.00 in0.0 mm 0.00 in0.0 mm 0.00 in0.0 mm
04:15 AM 31.9°F-0.1°C 30.1°F-1.1°C 93% 1.0 mph E1.6 kmh E 5.0 mph8.0 kmh 29.67 in1004.7 mb 0.00 in0.0 mm 0.00 in0.0 mm 0.00 in0.0 mm
04:10 AM 32.0°F0.0°C 30.2°F-1.0°C 93% Calm Calm 4.0 mph6.4 kmh 29.67 in1004.7 mb 0.00 in0.0 mm 0.00 in0.0 mm 0.00 in0.0 mm
04:05 AM 32.0°F0.0°C 30.2°F-1.0°C 93% 2.0 mph ESE3.2 kmh ESE 6.0 mph9.7 kmh 29.67 in1004.7 mb 0.00 in0.0 mm 0.00 in0.0 mm 0.00 in0.0 mm
04:00 AM 32.0°F0.0°C 30.2°F-1.0°C 93% 2.0 mph SE3.2 kmh SE 6.0 mph9.7 kmh 29.68 in1005.1 mb 0.00 in0.0 mm 0.00 in0.0 mm 0.00 in0.0 mm
03:55 AM 32.0°F0.0°C 30.2°F-1.0°C 93% 2.0 mph SSE3.2 kmh SSE 6.0 mph9.7 kmh 29.68 in1005.1 mb 0.00 in0.0 mm 0.00 in0.0 mm 0.00 in0.0 mm
03:50 AM 32.0°F0.0°C 30.2°F-1.0°C 93% 4.0 mph E6.4 kmh E 6.0 mph9.7 kmh 29.68 in1005.1 mb 0.00 in0.0 mm 0.00 in0.0 mm 0.00 in0.0 mm
03:45 AM 32.0°F0.0°C 30.2°F-1.0°C 93% 3.0 mph SE4.8 kmh SE 4.0 mph6.4 kmh 29.68 in1005.1 mb 0.00 in0.0 mm 0.00 in0.0 mm 0.00 in0.0 mm
03:40 AM 32.1°F0.1°C 30.3°F-0.9°C 93% 1.0 mph ESE1.6 kmh ESE 4.0 mph6.4 kmh 29.68 in1005.1 mb 0.00 in0.0 mm 0.00 in0.0 mm 0.00 in0.0 mm
03:35 AM 32.3°F0.2°C 30.5°F-0.8°C 93% 1.0 mph SE1.6 kmh SE 6.0 mph9.7 kmh 29.69 in1005.4 mb 0.00 in0.0 mm 0.00 in0.0 mm 0.00 in0.0 mm
03:30 AM 32.4°F0.2°C 30.6°F-0.8°C 93% 1.0 mph SE1.6 kmh SE 3.0 mph4.8 kmh 29.69 in1005.4 mb 0.00 in0.0 mm 0.00 in0.0 mm 0.00 in0.0 mm
03:25 AM 32.5°F0.3°C 30.7°F-0.7°C 93% Calm Calm 4.0 mph6.4 kmh 29.69 in1005.4 mb 0.00 in0.0 mm 0.00 in0.0 mm 0.00 in0.0 mm
03:20 AM 32.7°F0.4°C 30.9°F-0.6°C 93% Calm Calm 3.0 mph4.8 kmh 29.69 in1005.4 mb 0.00 in0.0 mm 0.00 in0.0 mm 0.00 in0.0 mm
03:15 AM 32.8°F0.4°C 31.0°F-0.6°C 93% 2.0 mph SE3.2 kmh SE 4.0 mph6.4 kmh 29.69 in1005.4 mb 0.00 in0.0 mm 0.00 in0.0 mm 0.00 in0.0 mm
03:10 AM 32.8°F0.4°C 31.0°F-0.6°C 93% 3.0 mph SE4.8 kmh SE 6.0 mph9.7 kmh 29.69 in1005.4 mb 0.00 in0.0 mm 0.00 in0.0 mm 0.00 in0.0 mm
03:05 AM 32.9°F0.5°C 31.1°F-0.5°C 93% 5.0 mph SE8.0 kmh SE 6.0 mph9.7 kmh 29.69 in1005.4 mb 0.00 in0.0 mm 0.00 in0.0 mm 0.00 in0.0 mm
03:00 AM 33.0°F0.6°C 31.2°F-0.4°C 93% 2.0 mph SSE3.2 kmh SSE 9.0 mph14.5 kmh 29.69 in1005.4 mb 0.00 in0.0 mm 0.00 in0.0 mm 0.00 in0.0 mm
02:55 AM 33.0°F0.6°C 31.4°F-0.3°C 94% Calm Calm 11.0 mph17.7 kmh 29.69 in1005.4 mb 0.00 in0.0 mm 0.00 in0.0 mm 0.00 in0.0 mm
02:50 AM 32.9°F0.5°C 31.3°F-0.4°C 94% 2.0 mph SE3.2 kmh SE 8.0 mph12.9 kmh 29.69 in1005.4 mb 0.00 in0.0 mm 0.00 in0.0 mm 0.00 in0.0 mm
02:45 AM 32.8°F0.4°C 31.2°F-0.4°C 94% 3.0 mph SE4.8 kmh SE 12.0 mph19.3 kmh 29.69 in1005.4 mb 0.00 in0.0 mm 0.00 in0.0 mm 0.00 in0.0 mm
02:40 AM 32.7°F0.4°C 31.1°F-0.5°C 94% 5.0 mph SE8.0 kmh SE 7.0 mph11.3 kmh 29.70 in1005.8 mb 0.00 in0.0 mm 0.00 in0.0 mm 0.00 in0.0 mm
02:35 AM 32.6°F0.3°C 31.0°F-0.6°C 94% 3.0 mph SE4.8 kmh SE 6.0 mph9.7 kmh 29.70 in1005.8 mb 0.00 in0.0 mm 0.00 in0.0 mm 0.00 in0.0 mm
02:30 AM 32.6°F0.3°C 31.0°F-0.6°C 94% 4.0 mph SE6.4 kmh SE 9.0 mph14.5 kmh 29.70 in1005.8 mb 0.00 in0.0 mm 0.00 in0.0 mm 0.00 in0.0 mm
02:25 AM 32.5°F0.3°C 30.9°F-0.6°C 94% 4.0 mph SE6.4 kmh SE 9.0 mph14.5 kmh 29.70 in1005.8 mb 0.00 in0.0 mm 0.00 in0.0 mm 0.00 in0.0 mm
02:20 AM 32.4°F0.2°C 31.1°F-0.5°C 95% 5.0 mph ESE8.0 kmh ESE 7.0 mph11.3 kmh 29.71 in1006.1 mb 0.00 in0.0 mm 0.00 in0.0 mm 0.00 in0.0 mm
02:15 AM 32.4°F0.2°C 30.8°F-0.7°C 94% 2.0 mph ESE3.2 kmh ESE 5.0 mph8.0 kmh 29.71 in1006.1 mb 0.00 in0.0 mm 0.00 in0.0 mm 0.00 in0.0 mm
02:10 AM 32.4°F0.2°C 31.1°F-0.5°C 95% 3.0 mph SE4.8 kmh SE 6.0 mph9.7 kmh 29.71 in1006.1 mb 0.00 in0.0 mm 0.00 in0.0 mm 0.00 in0.0 mm
02:05 AM 32.3°F0.2°C 31.0°F-0.6°C 95% 1.0 mph SE1.6 kmh SE 10.0 mph16.1 kmh 29.71 in1006.1 mb 0.00 in0.0 mm 0.00 in0.0 mm 0.00 in0.0 mm
02:00 AM 32.1°F0.1°C 30.5°F-0.8°C 94% 4.0 mph ESE6.4 kmh ESE 6.0 mph9.7 kmh 29.71 in1006.1 mb 0.00 in0.0 mm 0.00 in0.0 mm 0.00 in0.0 mm
01:55 AM 32.1°F0.1°C 30.5°F-0.8°C 94% 2.0 mph SE3.2 kmh SE 5.0 mph8.0 kmh 29.71 in1006.1 mb 0.00 in0.0 mm 0.00 in0.0 mm 0.00 in0.0 mm
01:50 AM 32.1°F0.1°C 30.5°F-0.8°C 94% 2.0 mph E3.2 kmh E 4.0 mph6.4 kmh 29.72 in1006.4 mb 0.00 in0.0 mm 0.00 in0.0 mm 0.00 in0.0 mm
01:45 AM 32.1°F0.1°C 30.5°F-0.8°C 94% 3.0 mph ESE4.8 kmh ESE 3.0 mph4.8 kmh 29.72 in1006.4 mb 0.00 in0.0 mm 0.00 in0.0 mm 0.00 in0.0 mm
01:40 AM 32.2°F0.1°C 30.6°F-0.8°C 94% 2.0 mph SE3.2 kmh SE 7.0 mph11.3 kmh 29.72 in1006.4 mb 0.00 in0.0 mm 0.00 in0.0 mm 0.00 in0.0 mm
01:35 AM 32.1°F0.1°C 30.5°F-0.8°C 94% 1.0 mph SE1.6 kmh SE 5.0 mph8.0 kmh 29.72 in1006.4 mb 0.00 in0.0 mm 0.00 in0.0 mm 0.00 in0.0 mm
01:30 AM 32.1°F0.1°C 30.5°F-0.8°C 94% 1.0 mph SE1.6 kmh SE 4.0 mph6.4 kmh 29.72 in1006.4 mb 0.00 in0.0 mm 0.00 in0.0 mm 0.00 in0.0 mm
01:25 AM 32.2°F0.1°C 30.6°F-0.8°C 94% 1.0 mph SE1.6 kmh SE 4.0 mph6.4 kmh 29.72 in1006.4 mb 0.00 in0.0 mm 0.00 in0.0 mm 0.00 in0.0 mm
01:20 AM 32.3°F0.2°C 30.7°F-0.7°C 94% 1.0 mph SE1.6 kmh SE 3.0 mph4.8 kmh 29.72 in1006.4 mb 0.00 in0.0 mm 0.00 in0.0 mm 0.00 in0.0 mm
01:15 AM 32.4°F0.2°C 30.8°F-0.7°C 94% 1.0 mph SE1.6 kmh SE 4.0 mph6.4 kmh 29.72 in1006.4 mb 0.00 in0.0 mm 0.00 in0.0 mm 0.00 in0.0 mm
01:10 AM 32.5°F0.3°C 30.9°F-0.6°C 94% 2.0 mph SE3.2 kmh SE 4.0 mph6.4 kmh 29.72 in1006.4 mb 0.00 in0.0 mm 0.00 in0.0 mm 0.00 in0.0 mm
01:05 AM 32.5°F0.3°C 30.9°F-0.6°C 94% 4.0 mph SSE6.4 kmh SSE 4.0 mph6.4 kmh 29.72 in1006.4 mb 0.00 in0.0 mm 0.00 in0.0 mm 0.00 in0.0 mm
01:00 AM 32.5°F0.3°C 30.9°F-0.6°C 94% 2.0 mph SE3.2 kmh SE 4.0 mph6.4 kmh 29.73 in1006.8 mb 0.00 in0.0 mm 0.00 in0.0 mm 0.00 in0.0 mm
12:55 AM 32.5°F0.3°C 30.9°F-0.6°C 94% 4.0 mph S6.4 kmh S 6.0 mph9.7 kmh 29.73 in1006.8 mb 0.00 in0.0 mm 0.00 in0.0 mm 0.00 in0.0 mm
12:50 AM 32.5°F0.3°C 30.9°F-0.6°C 94% Calm Calm 5.0 mph8.0 kmh 29.73 in1006.8 mb 0.00 in0.0 mm 0.00 in0.0 mm 0.00 in0.0 mm
12:45 AM 32.7°F0.4°C 31.1°F-0.5°C 94% Calm Calm 2.0 mph3.2 kmh 29.74 in1007.1 mb 0.00 in0.0 mm 0.00 in0.0 mm 0.00 in0.0 mm
12:40 AM 32.8°F0.4°C 31.2°F-0.4°C 94% 1.0 mph SE1.6 kmh SE 3.0 mph4.8 kmh 29.74 in1007.1 mb 0.00 in0.0 mm 0.00 in0.0 mm 0.00 in0.0 mm
12:35 AM 32.8°F0.4°C 31.2°F-0.4°C 94% 3.0 mph SE4.8 kmh SE 4.0 mph6.4 kmh 29.74 in1007.1 mb 0.00 in0.0 mm 0.00 in0.0 mm 0.00 in0.0 mm
12:30 AM 32.8°F0.4°C 31.2°F-0.4°C 94% 3.0 mph E4.8 kmh E 4.0 mph6.4 kmh 29.74 in1007.1 mb 0.00 in0.0 mm 0.00 in0.0 mm 0.00 in0.0 mm
12:25 AM 32.8°F0.4°C 31.2°F-0.4°C 94% 1.0 mph ESE1.6 kmh ESE 4.0 mph6.4 kmh 29.74 in1007.1 mb 0.00 in0.0 mm 0.00 in0.0 mm 0.00 in0.0 mm
12:20 AM 32.8°F0.4°C 31.2°F-0.4°C 94% 3.0 mph SE4.8 kmh SE 5.0 mph8.0 kmh 29.74 in1007.1 mb 0.00 in0.0 mm 0.00 in0.0 mm 0.00 in0.0 mm
12:15 AM 32.8°F0.4°C 31.2°F-0.4°C 94% 1.0 mph SSE1.6 kmh SSE 4.0 mph6.4 kmh 29.74 in1007.1 mb 0.00 in0.0 mm 0.00 in0.0 mm 0.00 in0.0 mm
12:10 AM 32.9°F0.5°C 31.3°F-0.4°C 94% 2.0 mph SSE3.2 kmh SSE 3.0 mph4.8 kmh 29.74 in1007.1 mb 0.00 in0.0 mm 0.00 in0.0 mm 0.00 in0.0 mm
12:05 AM 32.8°F0.4°C 31.2°F-0.4°C 94% 1.0 mph SSE1.6 kmh SSE 3.0 mph4.8 kmh 29.74 in1007.1 mb 0.00 in0.0 mm 0.00 in0.0 mm 0.00 in0.0 mm
12:00 AM 32.8°F0.4°C 31.2°F-0.4°C 94% 2.0 mph SE3.2 kmh SE 3.0 mph4.8 kmh 29.74 in1007.1 mb 0.00 in0.0 mm 0.00 in0.0 mm 0.12 in3.0 mm